Abeytas, New Mexico
Current Conditions -  °F | °C
As of 3:15 AM on Saturday 22 Nov 2014 (Local Time) from KE80 Reporting Station
Clear Clear  
Wind Chill: -6°   Ceiling: Unl
Heat Index: -3°   Visibility: 10mi
Dew Point: -9°   Wind: 5mph
Humidity: 67%   Direction: 330°NNW
Pressure: 30.09"   Gusts: NA
Location:  34.4828°N, 106.804°W
Report Text: KE80 221015Z AUTO 33004KT 10SM CLR M03/M09 A3009 RMK AO2 T10341087
Loading
Personal Weather Stations






























Interactive Weather Map New forecast layout! Learn more

10-Day Weather Forecast

Advertisements
Track Severe Weather on mobile